Create Tblcommutelog Verified Points Advance Search
| # | Trip ID | Id Commuter | Trip Date | Trip Num | Current Lat | Current Lng | Delta Distance | Current Time | Activity | Activity Confidence | Current Speed | |
|---|---|---|---|---|---|---|---|---|---|---|---|---|
| 71561 | 250909_776280_16507554_0722 | 776280 | (not set) | (not set) | 38.9941313 | -77.0309741 | 0.2374 | 2025-09-09 07:30:26 | walking | 100 | 0.71526281438036 | |
| 71562 | 250909_776280_16507554_0722 | 776280 | (not set) | (not set) | 38.9941313 | -77.0309741 | 0.2374 | 2025-09-09 07:30:26 | walking | 100 | 0.71526281438036 | |
| 71563 | 250909_772581_16430940_0700 | 772581 | (not set) | (not set) | 38.960070940702 | -76.862413762209 | 4.0377 | 2025-09-09 07:30:26 | still | 33 | 11.314563644979 | |
| 71564 | 250909_772581_16430940_0700 | 772581 | (not set) | (not set) | 38.960070940702 | -76.862413762209 | 5.005 | 2025-09-09 07:30:26 | still | 33 | 11.314563644979 | |
| 71565 | 250909_781944_6458276_0715 | 781944 | (not set) | (not set) | 38.897303482482 | -77.006381044547 | 0.5059 | 2025-09-09 07:30:27 | on_foot | 100 | -0.44703925898772 | |
| 71566 | 250909_781944_6458276_0715 | 781944 | (not set) | (not set) | 38.897303482482 | -77.006381044547 | 0.5059 | 2025-09-09 07:30:27 | on_foot | 100 | -0.44703925898772 | |
| 71567 | 250909_785264_6438355_0659 | 785264 | (not set) | (not set) | 38.913660559588 | -77.189293797355 | 14.3529 | 2025-09-09 07:30:27 | in_vehicle | 100 | 12.722737310791 | |
| 71568 | 250909_762844_16460442_0637 | 762844 | (not set) | (not set) | 38.949918125597 | -76.870163131883 | 31.0669 | 2025-09-09 07:30:27 | in_vehicle | 100 | -0.44703925898772 | |
| 71569 | 250909_785230_16490874_0713 | 785230 | (not set) | (not set) | 38.815603267858 | -76.829745059108 | 14.4058 | 2025-09-09 07:30:29 | in_vehicle | 100 | 5.0426028413815 | |
| 71570 | 250909_785230_16490874_0713 | 785230 | (not set) | (not set) | 38.815603267858 | -76.829745059108 | 14.4058 | 2025-09-09 07:30:29 | in_vehicle | 100 | 5.0426028413815 | |
| 71571 | 250909_763853_16464864_0716 | 763853 | (not set) | (not set) | 38.871142183333 | -77.444838783333 | 4.1785 | 2025-09-09 07:30:29 | in_vehicle | 100 | 8.6457392688226 | |
| 71572 | 250909_784104_6438355_0701 | 784104 | (not set) | (not set) | 39.062550771087 | -77.121139811424 | 10.3543 | 2025-09-09 07:30:29 | in_vehicle | 100 | 4.3094584566417 | |
| 71573 | 250909_763853_16464864_0716 | 763853 | (not set) | (not set) | 38.871142183333 | -77.444838783333 | 4.1785 | 2025-09-09 07:30:29 | in_vehicle | 100 | 8.6457392688226 | |
| 71574 | 250909_753586_16500033_0730 | 753586 | (not set) | (not set) | 38.893547966181 | -76.985918507052 | 0 | 2025-09-09 07:30:29 | unknown | 100 | 0.6482069255322 | |
| 71575 | 250909_753586_16500033_0730 | 753586 | (not set) | (not set) | 38.893547966181 | -76.985918507052 | 0 | 2025-09-09 07:30:29 | in_vehicle | 100 | 0.6482069255322 | |
| 71576 | 250909_738572_16489587_0721 | 738572 | (not set) | (not set) | 38.939458462766 | -76.88680677005 | 3.8586 | 2025-09-09 07:30:29 | still | 33 | -0.44703925898772 | |
| 71577 | 250909_787735_16413954_0654 | 787735 | (not set) | (not set) | 39.00694830242 | -77.05100894572 | 17.3094 | 2025-09-09 07:30:30 | in_vehicle | 100 | 12.083471170438 | |
| 71578 | 250909_738572_16489587_0721 | 738572 | (not set) | (not set) | 38.933472489673 | -76.906707082556 | 5.2412 | 2025-09-09 07:30:30 | still | 33 | -0.44703925898772 | |
| 71579 | 250909_107574_16513620_0728 | 107574 | (not set) | (not set) | 39.00679781212 | -77.050779146966 | 1.8356 | 2025-09-09 07:30:30 | in_vehicle | 100 | 11.913596252023 | |
| 71580 | 250909_762844_16460442_0637 | 762844 | (not set) | (not set) | 38.949085309433 | -76.871663490837 | 31.0669 | 2025-09-09 07:30:30 | in_vehicle | 100 | -0.44703925898772 |